Time;durP1;ratioP1;P1;durP2;ratioP2;P2;SDS_P1;SDS_P2;PMS_P1;PMS_P2;Temp;Humidity;BMP_temperature;BMP_pressure;BME280_temperature;BME280_humidity;BME280_pressure;Samples;Min_cycle;Max_cycle;Signal;HPM_P1;HPM_P2
2022/08/25 00:00:03;;;;;;;3.15;2.85;;;23.80;78.10;;;;;;2594459;22;20309;-71
2022/08/25 00:01:13;;;;;;;3.42;2.35;;;23.90;78.70;;;;;;2594396;22;19999;-71
2022/08/25 00:02:13;;;;;;;3.55;2.33;;;23.90;78.50;;;;;;2595014;22;20301;-71
2022/08/25 00:03:15;;;;;;;4.25;2.50;;;23.80;76.10;;;;;;2594134;22;20026;-71
2022/08/25 00:04:17;;;;;;;6.32;3.10;;;23.80;76.10;;;;;;2594185;22;20000;-71
2022/08/25 00:05:18;;;;;;;4.28;2.72;;;23.80;75.90;;;;;;2594757;22;20007;-71
2022/08/25 00:06:19;;;;;;;4.60;2.90;;;23.80;77.40;;;;;;2593993;22;20006;-71
2022/08/25 00:07:19;;;;;;;5.78;2.58;;;23.80;78.80;;;;;;2594706;22;20327;-71
2022/08/25 00:08:20;;;;;;;6.53;2.63;;;23.70;79.20;;;;;;2594459;22;20023;-71
2022/08/25 00:09:23;;;;;;;3.05;2.72;;;23.70;79.10;;;;;;2594480;22;20011;-71
2022/08/25 00:10:24;;;;;;;3.50;2.58;;;23.70;79.20;;;;;;2582021;23;20012;-71
2022/08/25 00:11:28;;;;;;;6.30;2.97;;;23.70;80.90;;;;;;2569506;23;20032;-71
2022/08/25 00:12:29;;;;;;;3.28;2.60;;;23.70;80.40;;;;;;2582220;22;20012;-71
2022/08/25 00:13:29;;;;;;;4.68;2.78;;;23.60;80.30;;;;;;2581754;23;20004;-71
2022/08/25 00:14:33;;;;;;;9.27;3.03;;;23.60;80.40;;;;;;2582110;23;20384;-71
2022/08/25 00:15:34;;;;;;;3.17;2.88;;;23.60;81.40;;;;;;2595384;22;20023;-71
2022/08/25 00:16:35;;;;;;;4.25;2.70;;;23.60;80.40;;;;;;2594860;22;20050;-71
2022/08/25 00:17:35;;;;;;;3.28;2.88;;;23.60;81.30;;;;;;2594878;22;20367;-71
2022/08/25 00:18:37;;;;;;;6.32;2.83;;;23.60;80.50;;;;;;2595329;22;19999;-71
2022/08/25 00:19:38;;;;;;;4.60;2.75;;;23.60;81.00;;;;;;2595332;22;20083;-71
2022/08/25 00:20:38;;;;;;;3.67;2.50;;;23.60;80.70;;;;;;2595209;22;20007;-71
2022/08/25 00:21:40;;;;;;;6.10;2.60;;;23.50;80.70;;;;;;2594022;22;20019;-71
2022/08/25 00:22:40;;;;;;;3.78;2.97;;;23.50;81.00;;;;;;2595366;22;20056;-71
2022/08/25 00:23:42;;;;;;;3.80;2.50;;;23.50;80.90;;;;;;2594768;22;20023;-71
2022/08/25 00:24:43;;;;;;;3.25;2.67;;;23.50;81.10;;;;;;2595457;22;19996;-71
2022/08/25 00:25:44;;;;;;;4.95;3.03;;;23.40;81.60;;;;;;2595076;22;20081;-71
2022/08/25 00:26:47;;;;;;;6.38;2.50;;;23.50;82.00;;;;;;2582149;23;20075;-71
2022/08/25 00:27:49;;;;;;;6.50;2.95;;;23.40;82.40;;;;;;2582414;22;19996;-71
2022/08/25 00:28:49;;;;;;;4.88;2.65;;;23.40;82.20;;;;;;2595200;22;19999;-71
2022/08/25 00:29:50;;;;;;;2.88;2.50;;;23.40;82.80;;;;;;2595248;22;20082;-71
2022/08/25 00:30:51;;;;;;;3.42;2.55;;;23.40;83.00;;;;;;2581845;23;20416;-71
2022/08/25 00:31:53;;;;;;;3.60;2.47;;;23.30;83.10;;;;;;2581561;23;20537;-71
2022/08/25 00:32:54;;;;;;;3.15;2.78;;;23.30;82.40;;;;;;2595506;22;20653;-71
2022/08/25 00:33:54;;;;;;;3.50;2.72;;;23.30;82.60;;;;;;2581657;23;20087;-71
2022/08/25 00:34:56;;;;;;;6.95;3.00;;;23.30;83.70;;;;;;2581844;23;20003;-71
2022/08/25 00:35:58;;;;;;;3.40;2.70;;;23.20;84.80;;;;;;2594804;22;20004;-71
2022/08/25 00:37:00;;;;;;;4.63;2.90;;;23.20;85.20;;;;;;2595593;22;20050;-71
2022/08/25 00:38:01;;;;;;;9.23;2.75;;;23.20;85.40;;;;;;2595371;22;20028;-71
2022/08/25 00:39:02;;;;;;;3.72;2.90;;;23.20;85.60;;;;;;2595339;22;20416;-71
2022/08/25 00:40:04;;;;;;;10.07;2.90;;;23.10;85.70;;;;;;2594768;22;20450;-71
2022/08/25 00:41:05;;;;;;;9.05;3.35;;;23.10;85.40;;;;;;2582079;23;20332;-70
2022/08/25 00:42:07;;;;;;;4.47;2.55;;;23.10;85.30;;;;;;2581951;22;20024;-70
2022/08/25 00:43:08;;;;;;;3.13;2.60;;;23.10;85.90;;;;;;2594964;22;20004;-71
2022/08/25 00:44:11;;;;;;;9.95;3.08;;;23.10;86.90;;;;;;2595664;22;20023;-71
2022/08/25 00:45:12;;;;;;;4.18;2.78;;;23.00;87.10;;;;;;2581633;23;20012;-71
2022/08/25 00:46:17;;;;;;;4.32;3.10;;;23.00;87.40;;;;;;2581510;23;20004;-71
2022/08/25 00:47:19;;;;;;;3.97;2.60;;;23.00;87.70;;;;;;2595489;22;20057;-71
2022/08/25 00:48:20;;;;;;;5.68;2.88;;;23.00;87.90;;;;;;2594607;22;20087;-71
2022/08/25 00:49:30;;;;;;;5.68;3.15;;;22.90;88.20;;;;;;2595388;22;20008;-71
2022/08/25 00:50:33;;;;;;;3.13;2.83;;;22.90;89.50;;;;;;2595274;22;20042;-70
2022/08/25 00:51:37;;;;;;;3.47;2.53;;;22.90;90.00;;;;;;2595051;22;20010;-70
2022/08/25 00:52:45;;;;;;;5.13;2.75;;;22.90;90.30;;;;;;2581797;23;20018;-70
2022/08/25 00:53:47;;;;;;;5.82;2.97;;;22.90;90.70;;;;;;2570747;23;19996;-71
2022/08/25 00:54:50;;;;;;;4.13;2.92;;;22.80;90.90;;;;;;2581521;23;20419;-71
2022/08/25 00:55:51;;;;;;;2.70;2.50;;;22.80;91.00;;;;;;2582092;22;20052;-71
2022/08/25 00:56:52;;;;;;;4.90;2.95;;;22.80;91.10;;;;;;2595147;22;20010;-71
2022/08/25 00:58:01;;;;;;;3.78;3.20;;;22.80;91.40;;;;;;2595400;22;20414;-71
2022/08/25 00:59:02;;;;;;;4.07;2.90;;;22.70;91.60;;;;;;2595296;22;20377;-71
2022/08/25 01:00:09;;;;;;;5.22;3.08;;;22.70;92.00;;;;;;2595393;22;19996;-71
2022/08/25 01:01:09;;;;;;;3.67;2.90;;;22.70;92.30;;;;;;2595168;22;20006;-71
2022/08/25 01:02:13;;;;;;;3.70;2.63;;;22.70;92.60;;;;;;2595212;22;20244;-71
2022/08/25 01:03:16;;;;;;;2.95;2.63;;;22.60;92.40;;;;;;2594595;22;20054;-70
2022/08/25 01:04:17;;;;;;;3.42;2.55;;;22.60;93.10;;;;;;2595568;22;20006;-70
2022/08/25 01:05:19;;;;;;;6.00;2.80;;;22.60;93.30;;;;;;2595315;22;20041;-70
2022/08/25 01:06:20;;;;;;;4.50;2.95;;;22.60;93.50;;;;;;2594759;22;20000;-70
2022/08/25 01:07:22;;;;;;;3.42;3.08;;;22.60;93.30;;;;;;2594978;22;20082;-70
2022/08/25 01:08:26;;;;;;;2.88;2.60;;;22.50;93.80;;;;;;2595159;22;20082;-70
2022/08/25 01:09:30;;;;;;;3.28;2.83;;;22.50;93.70;;;;;;2595246;22;20305;-71
2022/08/25 01:10:32;;;;;;;3.22;2.85;;;22.50;94.10;;;;;;2595287;22;20750;-70
2022/08/25 01:11:34;;;;;;;3.05;2.85;;;22.50;94.20;;;;;;2595280;22;20011;-70
2022/08/25 01:12:36;;;;;;;4.75;3.13;;;22.50;94.50;;;;;;2594915;22;20057;-71
2022/08/25 01:13:40;;;;;;;3.72;3.10;;;22.40;94.40;;;;;;2594780;22;19996;-70
2022/08/25 01:14:44;;;;;;;3.88;3.33;;;22.40;94.80;;;;;;2595081;22;20011;-70
2022/08/25 01:15:47;;;;;;;5.20;3.50;;;22.40;95.40;;;;;;2581354;23;20019;-70
2022/08/25 01:16:48;;;;;;;3.53;3.00;;;22.40;95.70;;;;;;2581991;22;19992;-70
2022/08/25 01:17:51;;;;;;;3.65;3.35;;;22.40;96.10;;;;;;2594925;22;19999;-70
2022/08/25 01:18:55;;;;;;;3.00;2.80;;;22.30;96.50;;;;;;2594936;22;20416;-70
2022/08/25 01:19:55;;;;;;;5.38;3.22;;;22.30;96.90;;;;;;2595455;22;20011;-70
2022/08/25 01:20:58;;;;;;;5.72;3.25;;;22.30;96.60;;;;;;2594670;22;20027;-70
2022/08/25 01:21:59;;;;;;;4.82;3.08;;;22.30;97.10;;;;;;2593792;22;20069;-70
2022/08/25 01:23:00;;;;;;;3.83;2.88;;;22.20;96.80;;;;;;2594598;22;20416;-70
2022/08/25 01:24:01;;;;;;;3.70;3.00;;;22.20;97.20;;;;;;2581723;23;20040;-70
2022/08/25 01:25:12;;;;;;;4.28;3.05;;;22.20;97.20;;;;;;2581924;23;20130;-70
2022/08/25 01:26:18;;;;;;;4.07;2.90;;;22.20;97.60;;;;;;2594909;22;20000;-70
2022/08/25 01:27:19;;;;;;;3.38;2.90;;;22.20;98.20;;;;;;2595428;22;20003;-71
2022/08/25 01:28:20;;;;;;;3.05;2.80;;;22.20;97.80;;;;;;2595154;22;19996;-70
2022/08/25 01:29:20;;;;;;;3.40;3.10;;;22.10;98.30;;;;;;2580884;23;20008;-71
2022/08/25 01:30:22;;;;;;;3.30;3.00;;;22.10;98.30;;;;;;2581451;23;20000;-70
2022/08/25 01:31:23;;;;;;;4.75;2.90;;;22.10;98.70;;;;;;2595263;22;20030;-70
2022/08/25 01:32:23;;;;;;;7.97;3.53;;;22.10;99.20;;;;;;2594787;22;20061;-70
2022/08/25 01:33:24;;;;;;;4.22;3.30;;;22.10;99.20;;;;;;2594672;22;20003;-70
2022/08/25 01:34:27;;;;;;;3.15;2.95;;;22.00;99.20;;;;;;2594881;22;20011;-70
2022/08/25 01:35:28;;;;;;;3.45;3.05;;;22.00;99.40;;;;;;2595205;22;20467;-70
2022/08/25 01:36:29;;;;;;;3.75;3.10;;;22.00;99.50;;;;;;2594523;22;20400;-70
2022/08/25 01:37:33;;;;;;;3.72;3.30;;;22.00;99.90;;;;;;2594941;22;20316;-70
2022/08/25 01:38:33;;;;;;;6.53;2.97;;;22.00;99.90;;;;;;2581089;23;20004;-70
2022/08/25 01:39:37;;;;;;;3.45;3.17;;;21.90;99.80;;;;;;2581667;23;20479;-70
2022/08/25 01:40:39;;;;;;;5.28;2.90;;;21.90;99.90;;;;;;2595106;22;20079;-70
2022/08/25 01:42:05;;;;;;;4.15;3.03;;;21.90;99.60;;;;;;2595232;22;20006;-70
2022/08/25 01:43:19;;;;;;;3.75;3.28;;;21.90;99.90;;;;;;2594830;22;20078;-70
2022/08/25 01:44:20;;;;;;;2.72;2.53;;;21.80;99.90;;;;;;2595001;22;20061;-70
2022/08/25 01:45:21;;;;;;;3.83;3.25;;;21.80;99.90;;;;;;2594981;22;20034;-70
2022/08/25 01:46:21;;;;;;;5.45;3.42;;;21.80;99.90;;;;;;2595068;22;20034;-70
2022/08/25 01:47:23;;;;;;;4.32;2.53;;;21.80;99.90;;;;;;2581242;23;20008;-70
2022/08/25 01:48:23;;;;;;;3.83;3.15;;;21.80;99.90;;;;;;2581586;22;20071;-70
2022/08/25 01:49:24;;;;;;;4.82;3.10;;;21.70;99.90;;;;;;2594848;22;19996;-70
2022/08/25 01:50:25;;;;;;;3.42;2.85;;;21.70;99.90;;;;;;2594762;22;20045;-70
2022/08/25 01:51:28;;;;;;;5.85;3.35;;;21.70;99.90;;;;;;2594750;22;20042;-70
2022/08/25 01:52:52;;;;;;;3.50;3.20;;;21.70;99.90;;;;;;2594639;22;20008;-70
2022/08/25 01:53:53;;;;;;;5.97;3.13;;;21.70;99.90;;;;;;2593527;22;20007;-70
2022/08/25 01:54:53;;;;;;;3.75;3.05;;;21.70;99.90;;;;;;2595028;22;20004;-70
2022/08/25 01:56:00;;;;;;;3.58;3.20;;;21.60;99.90;;;;;;2594751;22;19996;-70
2022/08/25 01:57:01;;;;;;;4.65;3.33;;;21.60;99.90;;;;;;2594983;22;20012;-70
2022/08/25 01:58:01;;;;;;;5.50;3.30;;;21.60;99.90;;;;;;2594642;22;20000;-70
2022/08/25 01:59:02;;;;;;;9.82;3.90;;;21.60;99.90;;;;;;2595062;22;20049;-71
2022/08/25 02:00:08;;;;;;;6.63;3.60;;;21.60;99.90;;;;;;2595303;22;20026;-71
2022/08/25 02:01:14;;;;;;;3.63;3.33;;;21.50;99.90;;;;;;2594905;22;20599;-71
2022/08/25 02:02:15;;;;;;;4.50;3.38;;;21.50;99.90;;;;;;2581326;23;20011;-70
2022/08/25 02:03:17;;;;;;;4.43;3.30;;;21.50;99.90;;;;;;2581213;23;20074;-70
2022/08/25 02:04:17;;;;;;;3.38;3.00;;;21.50;99.90;;;;;;2595110;22;20003;-70
2022/08/25 02:05:18;;;;;;;5.15;3.55;;;21.50;99.90;;;;;;2594728;22;20000;-70
2022/08/25 02:06:32;;;;;;;3.67;3.30;;;21.40;99.90;;;;;;2594641;22;20011;-70
2022/08/25 02:07:32;;;;;;;3.70;2.92;;;21.40;99.90;;;;;;2594724;22;20003;-71
2022/08/25 02:08:34;;;;;;;4.53;3.42;;;21.40;99.90;;;;;;2595171;22;20014;-71
2022/08/25 02:09:36;;;;;;;4.13;3.10;;;21.40;99.90;;;;;;2594922;22;20070;-70
2022/08/25 02:10:38;;;;;;;6.38;3.63;;;21.40;99.90;;;;;;2595125;22;19999;-70
2022/08/25 02:11:41;;;;;;;4.45;2.92;;;21.30;99.90;;;;;;2595103;22;20011;-70
2022/08/25 02:12:41;;;;;;;3.78;3.42;;;21.40;99.90;;;;;;2594551;22;20003;-70
2022/08/25 02:13:42;;;;;;;4.95;3.28;;;21.30;99.90;;;;;;2594626;22;20035;-70
2022/08/25 02:14:43;;;;;;;3.78;3.38;;;21.30;99.90;;;;;;2594728;22;20412;-71
2022/08/25 02:15:47;;;;;;;3.20;2.90;;;21.30;99.90;;;;;;2581293;23;20005;-71
2022/08/25 02:16:50;;;;;;;3.90;2.90;;;21.30;99.90;;;;;;2581944;22;20002;-71
2022/08/25 02:17:51;;;;;;;2.92;2.72;;;21.30;99.90;;;;;;2594781;22;20454;-70
2022/08/25 02:18:52;;;;;;;4.13;3.22;;;21.30;99.90;;;;;;2594546;22;20376;-70
2022/08/25 02:19:55;;;;;;;3.45;3.13;;;21.30;99.90;;;;;;2595092;22;20003;-70
2022/08/25 02:20:56;;;;;;;4.72;3.40;;;21.20;99.90;;;;;;2595086;22;20002;-70
2022/08/25 02:21:58;;;;;;;5.35;3.60;;;21.20;99.90;;;;;;2594932;22;20479;-70
2022/08/25 02:22:59;;;;;;;5.07;3.33;;;21.20;99.90;;;;;;2594218;22;19995;-70
2022/08/25 02:24:00;;;;;;;5.55;3.30;;;21.20;99.90;;;;;;2595121;22;20034;-70
2022/08/25 02:25:01;;;;;;;4.88;3.88;;;21.20;99.90;;;;;;2594920;22;20008;-70
2022/08/25 02:26:03;;;;;;;3.70;3.40;;;21.20;99.90;;;;;;2594564;22;20003;-70
2022/08/25 02:27:04;;;;;;;5.32;3.13;;;21.10;99.90;;;;;;2594878;22;20007;-71
2022/08/25 02:28:07;;;;;;;3.92;3.60;;;21.10;99.90;;;;;;2594626;22;19999;-70
2022/08/25 02:29:08;;;;;;;5.97;3.42;;;21.10;99.90;;;;;;2594772;22;20003;-70
2022/08/25 02:30:10;;;;;;;6.78;3.70;;;21.10;99.90;;;;;;2594523;22;20004;-70
2022/08/25 02:31:12;;;;;;;7.18;3.55;;;21.10;99.90;;;;;;2594992;22;20008;-71
2022/08/25 02:32:12;;;;;;;4.00;3.22;;;21.10;99.90;;;;;;2580847;23;20498;-70
2022/08/25 02:33:13;;;;;;;5.78;3.45;;;21.10;99.90;;;;;;2580416;23;20448;-71
2022/08/25 02:34:14;;;;;;;3.70;3.03;;;21.10;99.90;;;;;;2594848;22;20003;-71
2022/08/25 02:35:14;;;;;;;4.45;3.53;;;21.10;99.90;;;;;;2594915;22;20069;-70
2022/08/25 02:36:15;;;;;;;4.95;3.42;;;21.00;99.90;;;;;;2581072;23;20004;-70
2022/08/25 02:37:16;;;;;;;5.18;3.33;;;21.00;99.90;;;;;;2581390;22;20497;-71
2022/08/25 02:38:17;;;;;;;4.10;3.50;;;21.00;99.90;;;;;;2594520;22;20004;-70
2022/08/25 02:39:17;;;;;;;3.67;3.10;;;21.00;99.90;;;;;;2594648;22;20007;-70
2022/08/25 02:40:20;;;;;;;5.25;3.75;;;21.00;99.90;;;;;;2594569;22;20023;-70
2022/08/25 02:41:23;;;;;;;4.35;3.28;;;21.00;99.90;;;;;;2594762;22;20000;-70
2022/08/25 02:42:24;;;;;;;3.75;3.45;;;21.00;99.90;;;;;;2594621;22;20027;-71
2022/08/25 02:43:26;;;;;;;7.78;3.70;;;20.90;99.90;;;;;;2594394;22;20003;-71
2022/08/25 02:44:27;;;;;;;5.78;3.85;;;20.90;99.90;;;;;;2594922;22;20004;-71
2022/08/25 02:45:27;;;;;;;4.15;3.75;;;20.90;99.90;;;;;;2594864;22;20008;-70
2022/08/25 02:46:29;;;;;;;3.90;3.50;;;20.90;99.90;;;;;;2594531;22;20003;-71
2022/08/25 02:47:30;;;;;;;4.72;3.20;;;20.90;99.90;;;;;;2594990;22;20330;-71
2022/08/25 02:48:31;;;;;;;4.93;3.50;;;20.90;99.90;;;;;;2594625;22;20047;-70
2022/08/25 02:49:32;;;;;;;4.45;3.72;;;20.90;99.90;;;;;;2581019;23;20008;-70
2022/08/25 02:50:32;;;;;;;3.85;3.50;;;20.80;99.90;;;;;;2581463;23;20000;-71
2022/08/25 02:51:34;;;;;;;6.43;4.00;;;20.80;99.90;;;;;;2594581;22;20003;-71
2022/08/25 02:52:35;;;;;;;4.15;3.08;;;20.80;99.90;;;;;;2594526;22;20042;-71
2022/08/25 02:53:38;;;;;;;3.95;3.55;;;20.80;99.90;;;;;;2594253;22;19995;-70
2022/08/25 02:54:39;;;;;;;6.00;3.33;;;20.80;99.90;;;;;;2594796;22;20716;-70
2022/08/25 02:55:39;;;;;;;3.40;3.10;;;20.80;99.90;;;;;;2594046;22;19999;-70
2022/08/25 02:56:41;;;;;;;5.22;3.75;;;20.80;99.90;;;;;;2594861;22;19996;-70
2022/08/25 02:57:42;;;;;;;4.97;3.67;;;20.70;99.90;;;;;;2580819;23;20091;-71
2022/08/25 02:58:44;;;;;;;6.55;3.42;;;20.70;99.90;;;;;;2581394;23;20007;-70
2022/08/25 02:59:47;;;;;;;3.80;3.50;;;20.70;99.90;;;;;;2581749;22;20479;-70
2022/08/25 03:00:48;;;;;;;6.20;3.42;;;20.70;99.90;;;;;;2594740;22;20305;-71
2022/08/25 03:01:49;;;;;;;6.82;3.80;;;20.70;99.90;;;;;;2595029;22;20091;-70
2022/08/25 03:02:49;;;;;;;4.38;3.30;;;20.70;99.90;;;;;;2594538;22;19999;-70
2022/08/25 03:03:51;;;;;;;4.70;3.33;;;20.70;99.90;;;;;;2594040;22;19992;-71
2022/08/25 03:04:53;;;;;;;4.07;3.50;;;20.70;99.90;;;;;;2594788;22;19996;-70
2022/08/25 03:05:55;;;;;;;4.20;3.80;;;20.70;99.90;;;;;;2580660;23;20150;-70
2022/08/25 03:06:56;;;;;;;5.65;3.58;;;20.60;99.90;;;;;;2581569;22;20070;-70
2022/08/25 03:07:56;;;;;;;3.45;3.10;;;20.60;99.90;;;;;;2594647;22;20030;-70
2022/08/25 03:08:57;;;;;;;3.95;3.13;;;20.60;99.90;;;;;;2594466;22;20075;-70
2022/08/25 03:09:57;;;;;;;3.92;3.20;;;20.60;99.90;;;;;;2594991;22;20074;-70
2022/08/25 03:10:58;;;;;;;4.72;3.80;;;20.60;99.90;;;;;;2594619;22;20003;-71
2022/08/25 03:11:58;;;;;;;6.18;3.63;;;20.60;99.90;;;;;;2594578;22;20416;-71
2022/08/25 03:12:59;;;;;;;8.98;4.00;;;20.60;99.90;;;;;;2594295;22;20007;-71
2022/08/25 03:13:59;;;;;;;5.10;3.15;;;20.60;99.90;;;;;;2594813;22;20073;-70
2022/08/25 03:15:00;;;;;;;5.60;3.58;;;20.50;99.90;;;;;;2581107;23;20091;-70
2022/08/25 03:16:02;;;;;;;4.35;3.70;;;20.50;99.90;;;;;;2580941;23;20012;-70
2022/08/25 03:17:03;;;;;;;10.18;3.60;;;20.50;99.90;;;;;;2593766;22;20000;-70
2022/08/25 03:18:04;;;;;;;7.47;3.60;;;20.50;99.90;;;;;;2581410;23;20083;-70
2022/08/25 03:19:05;;;;;;;8.25;3.72;;;20.50;99.90;;;;;;2581174;22;20026;-71
2022/08/25 03:20:06;;;;;;;4.40;3.53;;;20.50;99.90;;;;;;2594513;22;20431;-71
2022/08/25 03:21:08;;;;;;;4.05;3.50;;;20.50;99.90;;;;;;2594597;22;20117;-71
2022/08/25 03:22:09;;;;;;;7.13;3.72;;;20.50;99.90;;;;;;2594854;22;20416;-71
2022/08/25 03:23:09;;;;;;;8.15;3.60;;;20.40;99.90;;;;;;2594024;22;20394;-71
2022/08/25 03:24:10;;;;;;;5.78;3.72;;;20.40;99.90;;;;;;2594632;22;20077;-71
2022/08/25 03:27:50;;;;;;;5.55;3.22;;;20.40;99.90;;;;;;2594929;22;20012;-71
2022/08/25 03:28:51;;;;;;;7.55;3.80;;;20.40;99.90;;;;;;2594008;22;20004;-70
2022/08/25 03:29:52;;;;;;;3.88;3.50;;;20.30;99.90;;;;;;2594618;22;20002;-71
2022/08/25 03:30:52;;;;;;;4.10;3.75;;;20.30;99.90;;;;;;2594503;22;20024;-71
2022/08/25 03:31:56;;;;;;;6.00;3.80;;;20.30;99.90;;;;;;2594486;22;20031;-70
2022/08/25 03:32:57;;;;;;;4.35;2.92;;;20.30;99.90;;;;;;2594217;22;20010;-70
2022/08/25 03:33:58;;;;;;;4.60;3.20;;;20.30;99.90;;;;;;2594674;22;20006;-71
2022/08/25 03:35:00;;;;;;;3.55;3.15;;;20.30;99.90;;;;;;2594579;22;20030;-70
2022/08/25 03:36:01;;;;;;;3.72;3.42;;;20.30;99.90;;;;;;2594555;22;20008;-71
2022/08/25 03:37:04;;;;;;;5.88;4.15;;;20.30;99.90;;;;;;2594370;22;20000;-70
2022/08/25 03:38:05;;;;;;;7.22;3.90;;;20.30;99.90;;;;;;2594610;22;19996;-70
2022/08/25 03:39:07;;;;;;;4.93;3.80;;;20.20;99.90;;;;;;2594469;22;20004;-71
2022/08/25 03:40:10;;;;;;;4.35;3.63;;;20.20;99.90;;;;;;2594508;22;20428;-70
2022/08/25 03:41:18;;;;;;;6.13;3.72;;;20.20;99.90;;;;;;2594454;22;20003;-71
2022/08/25 03:42:19;;;;;;;5.82;3.53;;;20.20;99.90;;;;;;2594664;22;20007;-71
2022/08/25 03:43:20;;;;;;;4.28;3.72;;;20.20;99.90;;;;;;2594240;22;20006;-71
2022/08/25 03:44:21;;;;;;;4.32;3.72;;;20.20;99.90;;;;;;2594229;22;20012;-70
2022/08/25 03:45:23;;;;;;;11.30;3.88;;;20.20;99.90;;;;;;2594595;22;20004;-71
2022/08/25 03:46:33;;;;;;;7.25;4.20;;;20.10;99.90;;;;;;2593998;22;20028;-71
2022/08/25 03:47:33;;;;;;;7.22;3.70;;;20.10;99.90;;;;;;2594438;22;20000;-71
2022/08/25 03:48:34;;;;;;;4.95;3.53;;;20.10;99.90;;;;;;2581327;23;20046;-70
2022/08/25 03:49:34;;;;;;;4.15;3.60;;;20.10;99.90;;;;;;2581075;23;20007;-71
2022/08/25 03:50:36;;;;;;;5.55;3.63;;;20.10;99.90;;;;;;2594545;22;20080;-70
2022/08/25 03:51:46;;;;;;;5.50;4.07;;;20.10;99.90;;;;;;2594371;22;20014;-70
2022/08/25 03:52:53;;;;;;;8.20;3.50;;;20.10;99.90;;;;;;2594527;22;20012;-71
2022/08/25 03:53:55;;;;;;;3.63;3.35;;;20.10;99.90;;;;;;2593204;22;20030;-71
2022/08/25 03:54:55;;;;;;;5.32;3.47;;;20.00;99.90;;;;;;2580192;23;20004;-71
2022/08/25 03:55:56;;;;;;;7.90;3.83;;;20.00;99.90;;;;;;2580498;23;20011;-71
2022/08/25 03:56:57;;;;;;;6.43;3.40;;;20.10;99.90;;;;;;2594664;22;20006;-71
2022/08/25 03:57:57;;;;;;;4.22;3.53;;;20.00;99.90;;;;;;2594819;22;20416;-71
2022/08/25 03:58:59;;;;;;;5.25;3.53;;;20.00;99.90;;;;;;2594381;22;20434;-71
2022/08/25 04:00:00;;;;;;;3.53;3.10;;;20.00;99.90;;;;;;2594685;22;20022;-71
2022/08/25 04:01:01;;;;;;;6.28;3.65;;;20.00;99.90;;;;;;2594603;22;20061;-71
2022/08/25 04:02:01;;;;;;;4.78;4.20;;;20.00;99.90;;;;;;2594358;22;20000;-71
2022/08/25 04:03:02;;;;;;;5.57;3.65;;;20.00;99.90;;;;;;2593940;22;20525;-71
2022/08/25 04:04:04;;;;;;;6.00;3.47;;;20.00;99.90;;;;;;2594641;22;20027;-71
2022/08/25 04:05:05;;;;;;;6.38;3.70;;;20.00;99.90;;;;;;2594592;22;20000;-71
2022/08/25 04:06:07;;;;;;;5.60;3.85;;;20.00;99.90;;;;;;2594205;22;20039;-71
2022/08/25 04:07:08;;;;;;;7.95;3.92;;;19.90;99.90;;;;;;2594089;22;20065;-71
2022/08/25 04:08:08;;;;;;;5.97;3.58;;;20.00;99.90;;;;;;2594673;22;20415;-71
2022/08/25 04:09:10;;;;;;;3.83;3.40;;;19.90;99.90;;;;;;2581316;23;20028;-71
2022/08/25 04:10:11;;;;;;;6.05;3.85;;;19.90;99.90;;;;;;2580872;22;20004;-71
2022/08/25 04:11:16;;;;;;;3.58;3.25;;;19.90;99.90;;;;;;2594684;22;20319;-71
2022/08/25 04:12:16;;;;;;;5.88;3.67;;;19.90;99.90;;;;;;2594594;22;20004;-71
2022/08/25 04:13:18;;;;;;;4.28;3.55;;;19.90;99.90;;;;;;2580448;23;20034;-71
2022/08/25 04:14:20;;;;;;;7.60;3.45;;;19.90;99.90;;;;;;2581297;22;20021;-71
2022/08/25 04:15:20;;;;;;;4.50;3.45;;;19.90;99.90;;;;;;2594441;22;20000;-71
2022/08/25 04:16:24;;;;;;;3.95;3.55;;;19.90;99.90;;;;;;2594028;22;20007;-71
2022/08/25 04:17:24;;;;;;;5.18;3.97;;;19.90;99.90;;;;;;2594150;22;20331;-71
2022/08/25 04:18:25;;;;;;;3.65;3.35;;;19.80;99.90;;;;;;2594522;22;20106;-71
2022/08/25 04:19:26;;;;;;;6.82;3.80;;;19.80;99.90;;;;;;2594675;22;20534;-71
2022/08/25 04:20:27;;;;;;;7.47;3.80;;;19.80;99.90;;;;;;2594700;22;20416;-71
2022/08/25 04:21:28;;;;;;;6.65;3.83;;;19.80;99.90;;;;;;2594225;22;20439;-71
2022/08/25 04:22:29;;;;;;;7.22;4.07;;;19.80;99.90;;;;;;2594521;22;20004;-71
2022/08/25 04:23:30;;;;;;;6.20;3.63;;;19.80;99.90;;;;;;2594227;22;20428;-71
2022/08/25 04:24:31;;;;;;;5.95;3.88;;;19.70;99.90;;;;;;2594178;22;20380;-71
2022/08/25 04:25:32;;;;;;;7.43;3.58;;;19.80;99.90;;;;;;2594365;22;20014;-71
2022/08/25 04:26:36;;;;;;;8.77;4.03;;;19.70;99.90;;;;;;2594360;22;20003;-71
2022/08/25 04:27:36;;;;;;;6.05;3.35;;;19.70;99.90;;;;;;2580783;23;20050;-71
2022/08/25 04:28:37;;;;;;;5.35;3.83;;;19.70;99.90;;;;;;2580969;23;20020;-71
2022/08/25 04:29:38;;;;;;;5.97;4.57;;;19.70;99.90;;;;;;2594643;22;20003;-71
2022/08/25 04:30:42;;;;;;;7.90;4.05;;;19.70;99.90;;;;;;2594270;22;20000;-71
2022/08/25 04:31:49;;;;;;;4.50;3.42;;;19.70;99.90;;;;;;2594822;22;20028;-71
2022/08/25 04:32:49;;;;;;;5.40;4.05;;;19.70;99.90;;;;;;2594304;22;20004;-71
2022/08/25 04:33:50;;;;;;;6.72;3.83;;;19.70;99.90;;;;;;2594074;22;20082;-71
2022/08/25 04:34:51;;;;;;;7.20;3.40;;;19.70;99.90;;;;;;2594234;22;20086;-71
2022/08/25 04:35:51;;;;;;;4.22;3.65;;;19.70;99.90;;;;;;2594231;22;20067;-71
2022/08/25 04:36:52;;;;;;;5.55;4.00;;;19.60;99.90;;;;;;2594391;22;20011;-71
2022/08/25 04:37:53;;;;;;;6.32;3.80;;;19.70;99.90;;;;;;2594500;22;20010;-71
2022/08/25 04:38:55;;;;;;;5.13;4.13;;;19.60;99.90;;;;;;2594482;22;20000;-71
2022/08/25 04:39:56;;;;;;;6.43;4.10;;;19.60;99.90;;;;;;2594705;22;19996;-71
2022/08/25 04:40:58;;;;;;;4.28;3.33;;;19.60;99.90;;;;;;2594038;22;20000;-71
2022/08/25 04:41:59;;;;;;;5.68;3.88;;;19.60;99.90;;;;;;2594346;22;19999;-71
2022/08/25 04:42:59;;;;;;;6.82;4.03;;;19.60;99.90;;;;;;2593698;22;20007;-71
2022/08/25 04:44:01;;;;;;;4.00;3.42;;;19.60;99.90;;;;;;2594344;22;20003;-71
2022/08/25 04:45:04;;;;;;;7.20;4.13;;;19.60;99.90;;;;;;2594547;22;20007;-71
2022/08/25 04:46:11;;;;;;;15.35;4.22;;;19.60;99.90;;;;;;2594204;22;20007;-71
2022/08/25 04:47:11;;;;;;;4.78;4.00;;;19.60;99.90;;;;;;2594472;22;20087;-71
2022/08/25 04:48:12;;;;;;;5.10;4.03;;;19.60;99.90;;;;;;2594603;22;20050;-71
2022/08/25 04:49:12;;;;;;;6.13;3.97;;;19.60;99.90;;;;;;2594303;22;19996;-71
2022/08/25 04:50:13;;;;;;;5.55;3.88;;;19.60;99.90;;;;;;2594314;22;20052;-71
2022/08/25 04:51:22;;;;;;;5.30;3.58;;;19.60;99.90;;;;;;2594585;22;20003;-71
2022/08/25 04:52:22;;;;;;;6.25;4.22;;;19.60;99.90;;;;;;2594036;22;20034;-71
2022/08/25 04:53:23;;;;;;;5.55;3.30;;;19.50;99.90;;;;;;2594154;22;20023;-71
2022/08/25 04:54:24;;;;;;;5.38;3.90;;;19.60;99.90;;;;;;2594146;22;20065;-71
2022/08/25 04:55:24;;;;;;;4.70;3.53;;;19.50;99.90;;;;;;2594073;22;20475;-71
2022/08/25 04:56:28;;;;;;;5.05;3.22;;;19.60;99.90;;;;;;2594137;22;20057;-71
2022/08/25 04:57:29;;;;;;;5.03;4.10;;;19.60;99.90;;;;;;2595254;22;20078;-71
2022/08/25 04:58:29;;;;;;;4.20;3.80;;;19.60;99.90;;;;;;2595337;22;19999;-71
2022/08/25 04:59:30;;;;;;;4.80;4.20;;;19.50;99.90;;;;;;2595100;22;20027;-71
2022/08/25 05:00:33;;;;;;;5.43;4.55;;;19.50;99.90;;;;;;2581647;23;20008;-71
2022/08/25 05:01:34;;;;;;;4.45;4.00;;;19.60;99.90;;;;;;2582373;22;20091;-70
2022/08/25 05:02:35;;;;;;;6.35;4.40;;;19.60;99.90;;;;;;2595150;22;20011;-71
2022/08/25 05:03:36;;;;;;;5.43;3.97;;;19.50;99.90;;;;;;2594719;22;20010;-71
2022/08/25 05:04:37;;;;;;;5.38;3.78;;;19.60;99.90;;;;;;2595247;22;20000;-71
2022/08/25 05:05:38;;;;;;;7.25;3.95;;;19.60;99.90;;;;;;2595032;22;20029;-71
2022/08/25 05:06:39;;;;;;;5.47;4.40;;;19.50;99.90;;;;;;2595165;22;20007;-71
2022/08/25 05:07:40;;;;;;;5.68;4.35;;;19.60;99.90;;;;;;2595311;22;20027;-71
2022/08/25 05:08:40;;;;;;;5.03;3.80;;;19.60;99.90;;;;;;2594557;22;20053;-71
2022/08/25 05:09:41;;;;;;;6.03;3.97;;;19.60;99.90;;;;;;2595099;22;20452;-71
2022/08/25 05:10:42;;;;;;;8.75;4.07;;;19.60;99.90;;;;;;2595085;22;20050;-71
2022/08/25 05:11:43;;;;;;;6.30;3.47;;;19.60;99.90;;;;;;2595224;22;20034;-71
2022/08/25 05:12:44;;;;;;;11.27;4.43;;;19.60;99.90;;;;;;2595267;22;20000;-71
2022/08/25 05:13:46;;;;;;;4.18;3.70;;;19.60;99.90;;;;;;2594712;22;20019;-71
2022/08/25 05:14:47;;;;;;;6.10;4.05;;;19.60;99.90;;;;;;2595291;22;20483;-71
2022/08/25 05:15:56;;;;;;;6.35;4.60;;;19.60;99.90;;;;;;2594942;22;20328;-71
2022/08/25 05:16:57;;;;;;;7.93;4.20;;;19.60;99.90;;;;;;2594557;22;19999;-71
2022/08/25 05:17:57;;;;;;;3.85;3.42;;;19.60;99.90;;;;;;2594954;22;20301;-71
2022/08/25 05:18:58;;;;;;;6.55;4.50;;;19.60;99.90;;;;;;2594966;22;20026;-71
2022/08/25 05:19:59;;;;;;;4.10;3.70;;;19.60;99.90;;;;;;2594953;22;20007;-71
2022/08/25 05:21:06;;;;;;;4.32;3.92;;;19.60;99.90;;;;;;2595234;22;20007;-71
2022/08/25 05:22:06;;;;;;;5.32;4.05;;;19.60;99.90;;;;;;2581276;23;20002;-71
2022/08/25 05:23:07;;;;;;;4.65;3.78;;;19.60;99.90;;;;;;2581311;23;19996;-71
2022/08/25 05:24:08;;;;;;;5.20;3.80;;;19.70;99.90;;;;;;2595282;22;20004;-71